Holton le Clay, United Kingdom
Current Conditions -  °F | °C
As of 3:50 PM on Wednesday 22 Oct 2014 (Local Time) from EGXS Reporting Station
Broken Clouds Broken Clouds  
Wind Chill: 55°   Ceiling: 5000
Heat Index: 55°   Visibility: 6mi
Dew Point: 46°   Wind: 12mph
Humidity: 72%   Direction: 240°WSW
Pressure: 30.15"   Gusts: NA
Location:  53.51°N, 0.06°W
Report Text: EGXS 221450Z AUTO 24010KT 9999 // SCT031/// BKN050/// 13/08 Q1021
Loading
Personal Weather Stations






























Interactive Weather Map
Tropical Storm Tracking
New forecast layout! Learn more

10-Day Weather Forecast

Advertisements
Track Severe Weather on mobile